createdAt,value
2018-07-20T00:02:25.491Z,94978.73
2018-07-20T00:05:29.568Z,94979.47
2018-07-20T00:08:33.927Z,94982.36
2018-07-20T00:11:38.566Z,94980.38
2018-07-20T00:14:43.313Z,94979.19
2018-07-20T00:17:48.129Z,94976.91
2018-07-20T00:20:53.118Z,94978.38
2018-07-20T00:23:57.629Z,94974.72
2018-07-20T00:27:02.077Z,94974.72
2018-07-20T00:30:06.866Z,94975.19
2018-07-20T00:33:11.273Z,94969.52
2018-07-20T00:36:16.569Z,94966.28
2018-07-20T00:39:21.393Z,94968.75
2018-07-20T00:42:25.782Z,94959.27
2018-07-20T00:45:29.793Z,94959.34
2018-07-20T00:48:34.078Z,94960.61
2018-07-20T00:51:38.458Z,94955.22
2018-07-20T00:54:42.784Z,94951.20
2018-07-20T00:57:47.112Z,94950.22
2018-07-20T01:00:51.787Z,94942.55
2018-07-20T01:03:55.849Z,94945.84
2018-07-20T01:07:00.166Z,94948.25
2018-07-20T01:10:04.469Z,94946.31
2018-07-20T01:13:08.771Z,94941.88
2018-07-20T01:16:13.133Z,94944.12
2018-07-20T01:19:17.458Z,94934.94
2018-07-20T01:22:22.202Z,94937.02
2018-07-20T01:25:26.757Z,94940.99
2018-07-20T01:28:31.068Z,94934.41
2018-07-20T01:31:35.630Z,94939.37
2018-07-20T01:34:40.160Z,94933.39
2018-07-20T01:37:44.438Z,94939.52
2018-07-20T01:40:48.783Z,94931.21
2018-07-20T01:43:53.104Z,94931.38
2018-07-20T01:46:57.435Z,94929.58
2018-07-20T01:50:01.686Z,94929.51
2018-07-20T01:53:05.934Z,94925.38
2018-07-20T01:56:10.297Z,94932.16
2018-07-20T01:59:14.571Z,94927.59
2018-07-20T02:02:18.838Z,94926.25
2018-07-20T02:05:23.104Z,94921.35
2018-07-20T02:08:27.400Z,94920.41
2018-07-20T02:11:31.968Z,94922.05
2018-07-20T02:14:36.261Z,94918.56
2018-07-20T02:17:40.831Z,94908.52
2018-07-20T02:20:45.150Z,94905.34
2018-07-20T02:23:49.444Z,94911.89
2018-07-20T02:26:54.001Z,94908.59
2018-07-20T02:29:58.279Z,94911.26
2018-07-20T02:33:02.558Z,94909.87
2018-07-20T02:36:06.891Z,94904.88
2018-07-20T02:39:13.211Z,94909.02
2018-07-20T02:42:17.497Z,94907.42
2018-07-20T02:45:21.536Z,94902.56
2018-07-20T02:48:26.363Z,94906.95
2018-07-20T02:51:30.662Z,94897.87
2018-07-20T02:54:35.085Z,94901.48
2018-07-20T02:57:39.364Z,94896.02
2018-07-20T03:00:43.742Z,94895.16
2018-07-20T03:03:48.009Z,94891.15
2018-07-20T03:06:52.342Z,94899.81
2018-07-20T03:09:56.617Z,94890.19
2018-07-20T03:13:00.945Z,94892.44
2018-07-20T03:16:05.340Z,94897.14
2018-07-20T03:19:09.973Z,94895.16
2018-07-20T03:22:14.446Z,94895.16
2018-07-20T03:25:18.772Z,94900.58
2018-07-20T03:28:23.092Z,94902.05
2018-07-20T03:31:27.684Z,94900.20
2018-07-20T03:34:32.009Z,94899.64
2018-07-20T03:37:36.511Z,94902.47
2018-07-20T03:40:41.130Z,94896.20
2018-07-20T03:43:45.415Z,94897.88
2018-07-20T03:46:49.686Z,94895.98
2018-07-20T03:49:54.523Z,94900.28
2018-07-20T03:52:58.870Z,94895.42
2018-07-20T03:56:03.253Z,94891.71
2018-07-20T03:59:07.455Z,94889.60
2018-07-20T04:02:11.762Z,94887.92
2018-07-20T04:05:16.086Z,94887.92
2018-07-20T04:08:20.396Z,94892.01
2018-07-20T04:11:24.936Z,94896.48
2018-07-20T04:14:29.281Z,94888.26
2018-07-20T04:17:38.949Z,94885.50
2018-07-20T04:20:43.283Z,94890.70
2018-07-20T04:23:47.563Z,94888.08
2018-07-20T04:26:52.494Z,94890.54
2018-07-20T04:29:56.890Z,94890.73
2018-07-20T04:33:02.273Z,94896.30
2018-07-20T04:36:06.912Z,94894.87
2018-07-20T04:39:13.510Z,94901.28
2018-07-20T04:42:18.863Z,94888.58
2018-07-20T04:45:23.161Z,94896.19
2018-07-20T04:48:27.706Z,94895.36
2018-07-20T04:51:32.348Z,94888.48
2018-07-20T04:54:36.730Z,94884.98
2018-07-20T04:57:41.214Z,94887.97
2018-07-20T05:00:45.619Z,94882.02
2018-07-20T05:03:50.587Z,94882.86
2018-07-20T05:06:55.741Z,94881.71
2018-07-20T05:10:00.168Z,94879.28
2018-07-20T05:13:18.060Z,94884.97
2018-07-20T05:16:22.377Z,94877.98
2018-07-20T05:19:26.785Z,94880.01
2018-07-20T05:22:31.146Z,94875.78
2018-07-20T05:25:35.653Z,94874.60
2018-07-20T05:28:39.980Z,94870.06
2018-07-20T05:31:44.258Z,94871.22
2018-07-20T05:34:49.106Z,94875.17
2018-07-20T05:37:53.864Z,94870.28
2018-07-20T05:40:58.361Z,94870.92
2018-07-20T05:44:02.745Z,94870.09
2018-07-20T05:47:07.658Z,94872.05
2018-07-20T05:50:12.018Z,94869.66
2018-07-20T05:53:16.423Z,94863.75
2018-07-20T05:56:20.762Z,94865.16
2018-07-20T05:59:25.565Z,94868.83
2018-07-20T06:02:30.173Z,94861.77
2018-07-20T06:05:34.992Z,94867.06
2018-07-20T06:08:39.429Z,94862.73
2018-07-20T06:11:43.690Z,94872.92
2018-07-20T06:14:47.953Z,94868.98
2018-07-20T06:17:52.380Z,94869.64
2018-07-20T06:20:56.654Z,94872.86
2018-07-20T06:24:01.855Z,94871.44
2018-07-20T06:27:06.185Z,94872.20
2018-07-20T06:30:10.506Z,94873.16
2018-07-20T06:33:16.772Z,94865.64
2018-07-20T06:36:21.277Z,94872.09
2018-07-20T06:39:25.860Z,94874.87
2018-07-20T06:42:30.249Z,94867.00
2018-07-20T06:45:34.984Z,94873.38
2018-07-20T06:48:39.262Z,94853.22
2018-07-20T06:51:43.779Z,94869.75
2018-07-20T06:54:48.313Z,94870.22
2018-07-20T06:57:53.175Z,94874.23
2018-07-20T07:00:57.784Z,94870.03
2018-07-20T07:04:02.375Z,94871.72
2018-07-20T07:07:07.918Z,94868.67
2018-07-20T07:10:12.276Z,94871.21
2018-07-20T07:13:16.782Z,94870.25
2018-07-20T07:16:21.140Z,94867.75
2018-07-20T07:19:25.529Z,94874.68
2018-07-20T07:22:29.872Z,94868.53
2018-07-20T07:25:34.268Z,94872.52
2018-07-20T07:28:38.659Z,94864.16
2018-07-20T07:31:42.985Z,94869.61
2018-07-20T07:34:47.806Z,94866.77
2018-07-20T07:37:52.351Z,94867.39
2018-07-20T07:40:56.685Z,94862.31
2018-07-20T07:44:01.001Z,94868.23
2018-07-20T07:47:05.481Z,94860.12
2018-07-20T07:50:10.149Z,94867.54
2018-07-20T07:53:14.452Z,94860.44
2018-07-20T07:56:18.985Z,94862.50
2018-07-20T07:59:23.863Z,94862.44
2018-07-20T08:02:28.129Z,94856.41
2018-07-20T08:05:32.428Z,94861.13
2018-07-20T08:08:36.734Z,94863.48
2018-07-20T08:11:41.506Z,94860.67
2018-07-20T08:14:46.358Z,94856.67
2018-07-20T08:17:50.713Z,94855.31
2018-07-20T08:20:55.186Z,94858.52
2018-07-20T08:23:59.609Z,94853.95
2018-07-20T08:27:03.886Z,94842.72
2018-07-20T08:30:08.154Z,94845.78
2018-07-20T08:33:12.465Z,94823.77
2018-07-20T08:36:16.945Z,94857.72
2018-07-20T08:39:21.229Z,94850.67
2018-07-20T08:42:25.933Z,94855.81
2018-07-20T08:45:30.321Z,94865.04
2018-07-20T08:48:34.838Z,94861.95
2018-07-20T08:51:39.301Z,94854.79
2018-07-20T08:54:43.578Z,94851.09
2018-07-20T08:57:48.057Z,94853.30
2018-07-20T09:00:52.410Z,94854.20
2018-07-20T09:03:56.666Z,94850.58
2018-07-20T09:07:01.261Z,94820.36
2018-07-20T09:10:05.893Z,94835.29
2018-07-20T09:13:10.231Z,94844.77
2018-07-20T09:16:14.997Z,94851.64
2018-07-20T09:19:19.393Z,94843.46
2018-07-20T09:22:23.861Z,94842.23
2018-07-20T09:25:28.181Z,94843.35
2018-07-20T09:28:32.777Z,94847.91
2018-07-20T09:31:37.202Z,94846.19
2018-07-20T09:34:41.578Z,94841.75
2018-07-20T09:37:46.096Z,94850.20
2018-07-20T09:40:50.375Z,94844.80
2018-07-20T09:43:54.670Z,94849.91
2018-07-20T09:46:58.979Z,94854.52
2018-07-20T09:50:03.410Z,94848.91
2018-07-20T09:53:07.818Z,94860.06
2018-07-20T09:56:12.220Z,94858.19
2018-07-20T09:59:16.704Z,94836.57
2018-07-20T10:02:21.182Z,94844.65
2018-07-20T10:05:25.551Z,94853.60
2018-07-20T10:08:30.116Z,94847.25
2018-07-20T10:11:35.672Z,94846.15
2018-07-20T10:14:39.888Z,94853.03
2018-07-20T10:17:44.135Z,94846.23
2018-07-20T10:20:48.426Z,94846.58
2018-07-20T10:23:52.866Z,94843.56
2018-07-20T10:26:57.176Z,94846.19
2018-07-20T10:30:01.879Z,94844.77
2018-07-20T10:33:06.242Z,94841.28
2018-07-20T10:36:10.565Z,94836.39
2018-07-20T10:39:14.645Z,94831.91
2018-07-20T10:42:19.224Z,94828.66
2018-07-20T10:45:23.697Z,94833.16
2018-07-20T10:48:28.181Z,94825.86
2018-07-20T10:51:32.476Z,94819.13
2018-07-20T10:54:36.802Z,94810.80
2018-07-20T10:57:41.049Z,94803.81
2018-07-20T11:00:45.989Z,94809.48
2018-07-20T11:03:50.296Z,94800.78
2018-07-20T11:06:54.576Z,94799.85
2018-07-20T11:09:58.919Z,94788.26
2018-07-20T11:13:03.313Z,94789.84
2018-07-20T11:16:07.769Z,94786.30
2018-07-20T11:19:12.021Z,94780.22
2018-07-20T11:22:16.478Z,94776.45
2018-07-20T11:25:20.740Z,94769.42
2018-07-20T11:28:25.185Z,94770.25
2018-07-20T11:31:29.582Z,94759.30
2018-07-20T11:34:33.960Z,94758.83
2018-07-20T11:37:42.297Z,94751.48
2018-07-20T11:40:46.845Z,94738.17
2018-07-20T11:43:51.368Z,94755.98
2018-07-20T11:46:55.818Z,94748.31
2018-07-20T11:50:00.209Z,94751.30
2018-07-20T11:53:05.090Z,94740.98
2018-07-20T11:56:09.471Z,94738.55
2018-07-20T11:59:14.279Z,94736.11
2018-07-20T12:02:18.548Z,94732.56
2018-07-20T12:05:23.369Z,94725.53
2018-07-20T12:08:27.722Z,94728.89
2018-07-20T12:11:32.577Z,94724.25
2018-07-20T12:14:36.830Z,94719.97
2018-07-20T12:17:41.291Z,94721.94
2018-07-20T12:20:46.013Z,94721.17
2018-07-20T12:23:50.287Z,94716.62
2018-07-20T12:26:54.721Z,94723.75
2018-07-20T12:29:59.366Z,94714.77
2018-07-20T12:33:04.078Z,94713.66
2018-07-20T12:36:08.416Z,94724.22
2018-07-20T12:39:13.060Z,94704.59
2018-07-20T12:42:17.340Z,94707.02
2018-07-20T12:45:21.908Z,94701.55
2018-07-20T12:48:26.301Z,94705.32
2018-07-20T12:51:30.729Z,94705.78
2018-07-20T12:54:35.292Z,94701.06
2018-07-20T12:57:39.766Z,94701.56
2018-07-20T13:00:44.442Z,94698.67
2018-07-20T13:03:49.328Z,94693.32
2018-07-20T13:06:53.762Z,94691.69
2018-07-20T13:09:58.281Z,94696.20
2018-07-20T13:13:02.535Z,94694.45
2018-07-20T13:16:06.976Z,94689.95
2018-07-20T13:19:11.241Z,94687.80
2018-07-20T13:22:15.521Z,94686.22
2018-07-20T13:25:19.794Z,94688.30
2018-07-20T13:28:24.085Z,94683.63
2018-07-20T13:31:28.381Z,94680.70
2018-07-20T13:34:32.737Z,94676.64
2018-07-20T13:37:37.285Z,94676.02
2018-07-20T13:40:41.882Z,94669.80
2018-07-20T13:43:46.137Z,94667.20
2018-07-20T13:46:50.430Z,94669.64
2018-07-20T13:49:54.984Z,94677.70
2018-07-20T13:52:59.669Z,94668.63
2018-07-20T13:56:03.982Z,94665.23
2018-07-20T13:59:09.241Z,94678.19
2018-07-20T14:02:19.344Z,94670.56
2018-07-20T14:05:23.950Z,94666.95
2018-07-20T14:08:28.412Z,94662.17
2018-07-20T14:11:33.186Z,94659.76
2018-07-20T14:14:37.646Z,94655.53
2018-07-20T14:17:42.754Z,94651.63
2018-07-20T14:20:47.418Z,94644.29
2018-07-20T14:23:51.978Z,94644.89
2018-07-20T14:26:56.096Z,94643.37
2018-07-20T14:30:00.451Z,94645.02
2018-07-20T14:33:04.894Z,94642.13
2018-07-20T14:36:09.232Z,94645.53
2018-07-20T14:39:14.906Z,94641.51
2018-07-20T14:42:19.872Z,94644.84
2018-07-20T14:45:27.977Z,94645.47
2018-07-20T14:48:34.868Z,94642.45
2018-07-20T14:51:40.520Z,94645.53
2018-07-20T14:54:47.759Z,94645.05
2018-07-20T14:57:55.608Z,94616.03
2018-07-20T15:01:00.969Z,94633.17
2018-07-20T15:04:06.367Z,94641.59
2018-07-20T15:07:11.301Z,94632.69
2018-07-20T15:10:16.801Z,94633.77
2018-07-20T15:13:21.304Z,94628.56
2018-07-20T15:16:25.814Z,94623.80
2018-07-20T15:19:30.235Z,94613.27
2018-07-20T15:22:35.439Z,94620.50
2018-07-20T15:25:39.773Z,94626.56
2018-07-20T15:28:44.175Z,94621.08
2018-07-20T15:31:49.370Z,94624.28
2018-07-20T15:34:53.835Z,94613.19
2018-07-20T15:37:58.952Z,94614.00
2018-07-20T15:41:04.095Z,94613.15
2018-07-20T15:44:08.580Z,94603.70
2018-07-20T15:47:13.362Z,94602.46
2018-07-20T15:50:21.357Z,94603.06
2018-07-20T15:53:36.269Z,94601.58
2018-07-20T15:56:34.513Z,94601.90
2018-07-20T15:59:39.573Z,94602.94
2018-07-20T16:02:44.858Z,94602.27
2018-07-20T16:05:55.129Z,94599.54
2018-07-20T16:09:01.891Z,94601.86
2018-07-20T16:12:09.161Z,94603.48
2018-07-20T16:15:17.518Z,94597.86
2018-07-20T16:18:24.988Z,94599.01
2018-07-20T16:21:36.588Z,94594.53
2018-07-20T16:24:51.165Z,94597.41
2018-07-20T16:27:56.717Z,94598.25
2018-07-20T16:31:05.644Z,94606.91
2018-07-20T16:34:14.913Z,94603.70
2018-07-20T16:37:25.830Z,94609.36
2018-07-20T16:40:33.712Z,94608.94
2018-07-20T16:43:44.116Z,94604.59
2018-07-20T16:46:56.030Z,94603.30
2018-07-20T16:50:05.266Z,94601.30
2018-07-20T16:53:15.935Z,94603.80
2018-07-20T16:56:21.245Z,94596.02
2018-07-20T16:59:31.029Z,94598.94
2018-07-20T17:02:40.805Z,94594.84
2018-07-20T17:05:49.607Z,94601.40
2018-07-20T17:09:02.217Z,94608.34
2018-07-20T17:12:09.699Z,94601.18
2018-07-20T17:15:13.952Z,94606.69
2018-07-20T17:18:18.368Z,94605.37
2018-07-20T17:21:22.806Z,94585.86
2018-07-20T17:24:27.096Z,94582.52
2018-07-20T17:27:31.476Z,94603.51
2018-07-20T17:30:35.921Z,94612.87
2018-07-20T17:33:40.504Z,94629.42
2018-07-20T17:36:44.790Z,94630.68
2018-07-20T17:39:49.265Z,94626.46
2018-07-20T17:42:53.602Z,94626.70
2018-07-20T17:45:57.940Z,94622.09
2018-07-20T17:49:02.360Z,94613.55
2018-07-20T17:52:06.686Z,94616.44
2018-07-20T17:55:10.956Z,94615.95
2018-07-20T17:58:15.395Z,94618.03
2018-07-20T18:01:19.735Z,94614.81
2018-07-20T18:04:24.627Z,94616.41
2018-07-20T18:07:28.998Z,94617.55
2018-07-20T18:10:33.316Z,94614.22
2018-07-20T18:13:37.565Z,94613.03
2018-07-20T18:16:41.989Z,94615.55
2018-07-20T18:19:46.357Z,94613.73
2018-07-20T18:22:50.785Z,94607.61
2018-07-20T18:25:55.073Z,94608.55
2018-07-20T18:28:59.325Z,94608.67
2018-07-20T18:32:03.653Z,94608.53
2018-07-20T18:35:08.046Z,94600.24
2018-07-20T18:38:12.502Z,94605.23
2018-07-20T18:41:16.785Z,94601.09
2018-07-20T18:44:21.116Z,94595.38
2018-07-20T18:47:25.172Z,94605.13
2018-07-20T18:50:29.749Z,94604.91
2018-07-20T18:53:34.107Z,94605.61
2018-07-20T18:56:38.368Z,94603.25
2018-07-20T18:59:42.730Z,94602.48
2018-07-20T19:02:47.118Z,94607.29
2018-07-20T19:05:51.410Z,94591.59
2018-07-20T19:08:55.816Z,94598.44
2018-07-20T19:12:00.136Z,94598.59
2018-07-20T19:15:05.878Z,94597.91
2018-07-20T19:18:10.390Z,94595.10
2018-07-20T19:21:14.650Z,94590.07
2018-07-20T19:24:18.966Z,94583.21
2018-07-20T19:27:23.251Z,94578.83
2018-07-20T19:30:27.548Z,94588.31
2018-07-20T19:33:32.133Z,94591.43
2018-07-20T19:36:36.383Z,94598.03
2018-07-20T19:39:40.668Z,94601.39
2018-07-20T19:42:45.190Z,94599.50
2018-07-20T19:45:49.583Z,94600.14
2018-07-20T19:48:53.933Z,94604.56
2018-07-20T19:51:58.141Z,94608.80
2018-07-20T19:55:02.526Z,94614.27
2018-07-20T19:58:07.018Z,94615.62
2018-07-20T20:01:11.453Z,94613.09
2018-07-20T20:04:15.797Z,94617.20
2018-07-20T20:07:20.277Z,94618.64
2018-07-20T20:10:24.489Z,94623.20
2018-07-20T20:13:28.899Z,94624.52
2018-07-20T20:16:36.042Z,94627.52
2018-07-20T20:19:40.573Z,94623.38
2018-07-20T20:22:45.684Z,94622.44
2018-07-20T20:25:49.963Z,94637.45
2018-07-20T20:28:54.276Z,94642.92
2018-07-20T20:31:58.741Z,94647.24
2018-07-20T20:35:02.893Z,94648.41
2018-07-20T20:38:07.479Z,94650.36
2018-07-20T20:41:12.143Z,94660.47
2018-07-20T20:44:16.540Z,94660.95
2018-07-20T20:47:20.883Z,94668.53
2018-07-20T20:50:25.202Z,94669.66
2018-07-20T20:53:29.529Z,94674.03
2018-07-20T20:56:33.853Z,94679.92
2018-07-20T20:59:38.474Z,94678.39
2018-07-20T21:02:42.792Z,94671.11
2018-07-20T21:05:46.972Z,94686.33
2018-07-20T21:08:51.535Z,94690.57
2018-07-20T21:11:56.376Z,94688.45
2018-07-20T21:15:00.669Z,94701.69
2018-07-20T21:18:05.539Z,94708.20
2018-07-20T21:21:09.966Z,94722.83
2018-07-20T21:24:14.496Z,94730.53
2018-07-20T21:27:19.225Z,94734.88
2018-07-20T21:30:24.093Z,94737.66
2018-07-20T21:33:28.876Z,94736.52
2018-07-20T21:36:32.899Z,94735.18
2018-07-20T21:39:38.856Z,94732.97
2018-07-20T21:42:43.096Z,94735.73
2018-07-20T21:45:47.654Z,94733.29
2018-07-20T21:48:52.047Z,94744.09
2018-07-20T21:51:56.327Z,94739.53
2018-07-20T21:55:01.038Z,94742.55
2018-07-20T21:58:06.059Z,94744.28
2018-07-20T22:01:10.710Z,94744.86
2018-07-20T22:04:15.330Z,94742.03
2018-07-20T22:07:19.669Z,94741.37
2018-07-20T22:10:24.128Z,94733.00
2018-07-20T22:13:28.884Z,94732.88
2018-07-20T22:16:33.225Z,94725.54
2018-07-20T22:19:46.683Z,94722.48
2018-07-20T22:23:12.570Z,94719.83
2018-07-20T22:26:17.023Z,94711.36
2018-07-20T22:29:21.509Z,94710.40
2018-07-20T22:32:25.854Z,94698.52
2018-07-20T22:35:30.528Z,94699.78
2018-07-20T22:38:34.972Z,94694.78
2018-07-20T22:41:39.427Z,94683.70
2018-07-20T22:44:43.956Z,94683.96
2018-07-20T22:47:48.441Z,94683.61
2018-07-20T22:50:53.006Z,94669.78
2018-07-20T22:53:57.589Z,94659.98
2018-07-20T22:57:02.021Z,94653.11
2018-07-20T23:00:06.584Z,94649.81
2018-07-20T23:03:11.086Z,94647.76
2018-07-20T23:06:15.594Z,94641.24
2018-07-20T23:09:19.928Z,94640.84
2018-07-20T23:12:24.237Z,94633.36
2018-07-20T23:15:29.087Z,94631.25
2018-07-20T23:18:33.443Z,94624.11
2018-07-20T23:21:40.174Z,94624.33
2018-07-20T23:24:44.641Z,94624.92
2018-07-20T23:27:49.009Z,94626.09
2018-07-20T23:30:53.437Z,94615.53
2018-07-20T23:33:57.728Z,94614.00
2018-07-20T23:37:02.016Z,94614.55
2018-07-20T23:40:06.716Z,94607.28
2018-07-20T23:43:11.114Z,94607.63
2018-07-20T23:46:15.144Z,94601.09
2018-07-20T23:49:19.429Z,94609.91
2018-07-20T23:52:23.887Z,94612.20
2018-07-20T23:55:28.412Z,94607.22
2018-07-20T23:58:32.742Z,94605.30
